METAR AND TAF INFORMATION
METAR FOR YPPH
ADDS - METARS form results

(1941 UTC 20 May 2018)
Data provider http://aviationweather.gov/adds/metars/
 
METAR text: YPPH 201930Z 08008KT CAVOK 12/04 Q1026 NOSIG
Conditions at: YPPH (PERTH INTL/BELMO, AU) observed 1930 UTC 20 May 2018
Temperature: 12.0°C (54°F)
Dewpoint: 4.0°C (39°F) [RH = 58%]
Pressure (altimeter): 30.30 inches Hg (1026.0 mb)
Winds: from the E (80 degrees) at 9 MPH (8 knots; 4.2 m/s)
Visibility: 6 or more miles (10+ km)
Ceiling: ceiling and visibility are OK
Clouds: unknown
Weather: no significant weather observed at this time

METAR text: YPPH 201900Z 08010KT CAVOK 13/03 Q1026 NOSIG
Conditions at: YPPH (PERTH INTL/BELMO, AU) observed 1900 UTC 20 May 2018
Temperature: 13.0°C (55°F)
Dewpoint: 3.0°C (37°F) [RH = 51%]
Pressure (altimeter): 30.30 inches Hg (1026.0 mb)
Winds: from the E (80 degrees) at 12 MPH (10 knots; 5.2 m/s)
Visibility: 6 or more miles (10+ km)
Ceiling: ceiling and visibility are OK
Clouds: unknown
Weather: no significant weather observed at this time

Forecast for: YPPH (PERTH INTL/BELMO, AU)
Text: TAF YPPH 201710Z 2018/2124 07008KT CAVOK
Forecast period: 1800 UTC 20 May 2018 to 0200 UTC 21 May 2018
Forecast type: FROM: standard forecast or significant change
Winds: from the ENE (70 degrees) at 9 MPH (8 knots; 4.2 m/s)
Visibility: 6 or more miles (10+ km)
Clouds: not forecast
Weather: NSW  (no significant weather)
Forecast for: YPPH (PERTH INTL/BELMO, AU)
Text: TAF YPPH 201710Z 2018/2124 07008KT CAVOK
Forecast period: 1800 UTC 20 May 2018 to 0200 UTC 21 May 2018
Forecast type: FROM: standard forecast or significant change
Winds: from the ENE (70 degrees) at 9 MPH (8 knots; 4.2 m/s)
Visibility: 6 or more miles (10+ km)
Clouds: not forecast
Weather: NSW  (no significant weather)
Forecast for: YPPH (PERTH INTL/BELMO, AU)
Text: TAF YPPH 201710Z 2018/2124 07008KT CAVOK
Forecast period: 0200 to 0900 UTC 21 May 2018
Forecast type: FROM: standard forecast or significant change
Winds: from the NNE (30 degrees) at 14 MPH (12 knots; 6.2 m/s)
Visibility: 6 or more miles (10+ km)
Clouds: not forecast
Weather: NSW  (no significant weather)
Forecast for: YPPH (PERTH INTL/BELMO, AU)
Text: TAF YPPH 201710Z 2018/2124 07008KT CAVOK
Forecast period: 0200 to 0900 UTC 21 May 2018
Forecast type: FROM: standard forecast or significant change
Winds: from the NNE (30 degrees) at 14 MPH (12 knots; 6.2 m/s)
Visibility: 6 or more miles (10+ km)
Clouds: not forecast
Weather: NSW  (no significant weather)
Forecast for: YPPH (PERTH INTL/BELMO, AU)
Text: TAF YPPH 201710Z 2018/2124 07008KT CAVOK
Forecast period: 0900 UTC 21 May 2018 to 0000 UTC 22 May 2018
Forecast type: FROM: standard forecast or significant change
Winds: from the ENE (70 degrees) at 9 MPH (8 knots; 4.2 m/s)
Visibility: 6 or more miles (10+ km)
Clouds: not forecast
Weather: NSW  (no significant weather)
Forecast for: YPPH (PERTH INTL/BELMO, AU)
Text: TAF YPPH 201710Z 2018/2124 07008KT CAVOK
Forecast period: 0900 UTC 21 May 2018 to 0000 UTC 22 May 2018
Forecast type: FROM: standard forecast or significant change
Winds: from the ENE (70 degrees) at 9 MPH (8 knots; 4.2 m/s)
Visibility: 6 or more miles (10+ km)
Clouds: not forecast
Weather: NSW  (no significant weather)

 AIRPORT MAP

 RUNWAY INFORMATION
Runway 03 Runway length 11299 ft Runway width 148 ft
Runway elevation 67 ft Runway displaced threshold 0 ft Runway heading 14
Runway 21 Runway length 11299 ft Runway width 148 ft
Runway elevation 43 ft Runway displaced threshold 0 ft Runway heading 194
Runway 06 Runway length 7096 ft Runway width 148 ft
Runway elevation 58 ft Runway displaced threshold 0 ft Runway heading 59
Runway 24 Runway length 7096 ft Runway width 148 ft
Runway elevation 58 ft Runway displaced threshold 0 ft Runway heading 239

 AIRPORT FREQUENCIES
Type APP Name APP Frequency 123.6 MHZ
Type ATIS Name ATIS Frequency 123.8 MHZ
Type CLD Name CLNC DEL Frequency 118.55 MHZ
Type DEP Name DEP Frequency 118.7 MHZ
Type FSS Name PERTH RADA Frequency 135.25 MHZ
Type GND Name GND Frequency 121.7 MHZ
Type OPS Name RAAF AIR O Frequency 897.4 MHZ
Type TWR Name TWR Frequency 120.5 MHZ

 AIRPORT NEAR NAVIGATION AIDS
Type NDB Name Caversham Frequency 329 KHZ
Type VOR-DME Name Perth Frequency 113700 KHZ
Type NDB Name Perth Frequency 272 KHZ
Type NDB Name Parkerville Frequency 352 KHZ



Copyright © 2011 - 2018 BirgenAir Virtual Airlines. All rights reserved. Developed by Goktug Unver